createdAt,value
2018-09-11T00:00:35.261Z,100942.30
2018-09-11T00:03:03.407Z,100939.32
2018-09-11T00:05:31.717Z,100940.12
2018-09-11T00:07:59.833Z,100939.86
2018-09-11T00:10:28.217Z,100941.52
2018-09-11T00:12:56.342Z,100944.53
2018-09-11T00:15:24.602Z,100948.63
2018-09-11T00:17:53.697Z,100937.38
2018-09-11T00:20:21.975Z,100940.66
2018-09-11T00:22:50.127Z,100946.41
2018-09-11T00:25:18.451Z,100951.08
2018-09-11T00:27:46.830Z,100952.72
2018-09-11T00:30:15.092Z,100948.64
2018-09-11T00:32:43.366Z,100947.24
2018-09-11T00:35:11.640Z,100941.14
2018-09-11T00:37:39.842Z,100938.67
2018-09-11T00:40:08.032Z,100937.58
2018-09-11T00:42:36.371Z,100943.02
2018-09-11T00:45:04.812Z,100945.22
2018-09-11T00:47:32.958Z,100953.70
2018-09-11T00:50:01.117Z,100956.94
2018-09-11T00:52:30.304Z,100963.75
2018-09-11T00:54:58.551Z,100965.98
2018-09-11T00:57:26.764Z,100964.32
2018-09-11T00:59:54.863Z,100963.72
2018-09-11T01:02:23.101Z,100959.61
2018-09-11T01:04:51.356Z,100959.88
2018-09-11T01:07:19.550Z,100957.67
2018-09-11T01:09:47.855Z,100956.23
2018-09-11T01:12:16.138Z,100955.70
2018-09-11T01:14:44.458Z,100953.47
2018-09-11T01:17:12.714Z,100965.25
2018-09-11T01:19:41.007Z,100964.72
2018-09-11T01:22:09.299Z,100965.48
2018-09-11T01:24:37.521Z,100966.19
2018-09-11T01:27:05.696Z,100969.72
2018-09-11T01:29:33.844Z,100964.83
2018-09-11T01:32:02.152Z,100965.09
2018-09-11T01:34:30.384Z,100961.26
2018-09-11T01:36:58.672Z,100957.72
2018-09-11T01:39:26.885Z,100958.52
2018-09-11T01:41:55.122Z,100966.77
2018-09-11T01:44:23.376Z,100958.79
2018-09-11T01:46:51.727Z,100956.84
2018-09-11T01:49:19.914Z,100962.84
2018-09-11T01:51:48.164Z,100962.88
2018-09-11T01:54:16.411Z,100957.33
2018-09-11T01:56:44.688Z,100958.17
2018-09-11T01:59:12.989Z,100956.80
2018-09-11T02:01:42.098Z,100961.92
2018-09-11T02:04:10.248Z,100958.97
2018-09-11T02:06:38.590Z,100954.06
2018-09-11T02:09:10.258Z,100951.11
2018-09-11T02:11:38.500Z,100945.06
2018-09-11T02:14:06.791Z,100939.34
2018-09-11T02:16:34.947Z,100933.03
2018-09-11T02:19:03.923Z,100934.88
2018-09-11T02:21:32.084Z,100929.67
2018-09-11T02:24:00.384Z,100929.42
2018-09-11T02:26:28.524Z,100931.80
2018-09-11T02:28:56.642Z,100923.91
2018-09-11T02:31:24.957Z,100924.47
2018-09-11T02:33:53.188Z,100924.70
2018-09-11T02:36:22.282Z,100923.06
2018-09-11T02:38:50.556Z,100926.64
2018-09-11T02:41:19.350Z,100923.02
2018-09-11T02:43:47.626Z,100925.80
2018-09-11T02:46:15.845Z,100929.59
2018-09-11T02:48:45.221Z,100926.86
2018-09-11T02:51:13.345Z,100927.42
2018-09-11T02:53:41.520Z,100923.33
2018-09-11T02:56:09.754Z,100913.72
2018-09-11T02:58:38.019Z,100914.47
2018-09-11T03:01:06.213Z,100910.32
2018-09-11T03:03:34.552Z,100905.43
2018-09-11T03:06:03.195Z,100906.61
2018-09-11T03:08:31.407Z,100909.66
2018-09-11T03:10:59.565Z,100912.66
2018-09-11T03:13:27.883Z,100919.89
2018-09-11T03:15:55.992Z,100918.73
2018-09-11T03:18:24.111Z,100921.16
2018-09-11T03:20:52.289Z,100929.86
2018-09-11T03:23:20.544Z,100932.54
2018-09-11T03:25:48.748Z,100924.63
2018-09-11T03:28:17.094Z,100925.77
2018-09-11T03:30:45.226Z,100928.72
2018-09-11T03:33:14.123Z,100931.34
2018-09-11T03:35:42.405Z,100931.53
2018-09-11T03:38:10.549Z,100922.72
2018-09-11T03:40:39.238Z,100927.02
2018-09-11T03:43:07.593Z,100932.71
2018-09-11T03:45:35.871Z,100924.14
2018-09-11T03:48:04.237Z,100927.77
2018-09-11T03:50:32.731Z,100927.02
2018-09-11T03:53:01.048Z,100930.87
2018-09-11T03:55:29.341Z,100931.45
2018-09-11T03:57:57.741Z,100930.81
2018-09-11T04:00:26.068Z,100931.02
2018-09-11T04:02:54.292Z,100935.95
2018-09-11T04:05:22.717Z,100936.53
2018-09-11T04:07:50.950Z,100934.65
2018-09-11T04:10:19.512Z,100931.28
2018-09-11T04:12:47.741Z,100932.66
2018-09-11T04:15:16.072Z,100934.80
2018-09-11T04:17:44.285Z,100936.73
2018-09-11T04:20:12.607Z,100942.73
2018-09-11T04:22:40.765Z,100940.57
2018-09-11T04:25:09.159Z,100940.05
2018-09-11T04:27:37.491Z,100949.36
2018-09-11T04:30:05.801Z,100950.39
2018-09-11T04:32:34.209Z,100941.04
2018-09-11T04:35:02.482Z,100949.48
2018-09-11T04:37:30.646Z,100946.77
2018-09-11T04:39:58.924Z,100945.85
2018-09-11T04:42:27.127Z,100951.00
2018-09-11T04:44:55.916Z,100956.98
2018-09-11T04:47:24.186Z,100955.09
2018-09-11T04:49:52.358Z,100955.34
2018-09-11T04:52:20.709Z,100966.33
2018-09-11T04:54:48.960Z,100958.65
2018-09-11T04:57:17.756Z,100963.59
2018-09-11T04:59:45.936Z,100962.57
2018-09-11T05:02:14.300Z,100961.57
2018-09-11T05:04:42.649Z,100962.42
2018-09-11T05:07:10.799Z,100972.37
2018-09-11T05:09:38.968Z,100964.73
2018-09-11T05:12:07.208Z,100966.38
2018-09-11T05:14:35.569Z,100969.37
2018-09-11T05:17:04.033Z,100965.69
2018-09-11T05:19:32.152Z,100972.59
2018-09-11T05:22:00.592Z,100971.50
2018-09-11T05:24:28.699Z,100976.21
2018-09-11T05:26:57.003Z,100975.11
2018-09-11T05:29:25.482Z,100981.52
2018-09-11T05:31:53.641Z,100980.05
2018-09-11T05:34:22.285Z,100986.38
2018-09-11T05:36:50.678Z,100985.47
2018-09-11T05:39:18.986Z,100981.10
2018-09-11T05:41:47.332Z,100978.05
2018-09-11T05:44:15.444Z,100982.55
2018-09-11T05:46:43.730Z,100984.13
2018-09-11T05:49:11.859Z,100984.60
2018-09-11T05:51:40.757Z,100981.02
2018-09-11T05:54:09.295Z,100979.08
2018-09-11T05:56:37.748Z,100978.35
2018-09-11T05:59:06.180Z,100968.00
2018-09-11T06:01:34.525Z,100969.73
2018-09-11T06:04:02.701Z,100972.36
2018-09-11T06:06:30.773Z,100971.52
2018-09-11T06:08:58.901Z,100977.70
2018-09-11T06:11:27.863Z,100977.03
2018-09-11T06:13:55.974Z,100976.52
2018-09-11T06:16:24.728Z,100979.34
2018-09-11T06:18:52.940Z,100969.64
2018-09-11T06:21:21.403Z,100982.46
2018-09-11T06:23:49.549Z,100974.80
2018-09-11T06:26:17.899Z,100978.61
2018-09-11T06:28:46.053Z,100977.64
2018-09-11T06:31:14.253Z,100977.46
2018-09-11T06:33:42.623Z,100966.52
2018-09-11T06:36:10.855Z,100970.62
2018-09-11T06:38:39.289Z,100972.82
2018-09-11T06:41:07.439Z,100971.47
2018-09-11T06:43:35.723Z,100962.95
2018-09-11T06:46:03.893Z,100966.50
2018-09-11T06:48:32.724Z,100964.03
2018-09-11T06:51:00.896Z,100965.72
2018-09-11T06:53:29.013Z,100962.70
2018-09-11T06:55:57.132Z,100973.14
2018-09-11T06:58:25.419Z,100974.55
2018-09-11T07:00:53.740Z,100973.73
2018-09-11T07:03:22.369Z,100966.87
2018-09-11T07:05:50.682Z,100967.97
2018-09-11T07:08:18.983Z,100968.48
2018-09-11T07:10:47.334Z,100953.34
2018-09-11T07:13:15.688Z,100954.17
2018-09-11T07:15:43.850Z,100957.77
2018-09-11T07:18:12.150Z,100955.56
2018-09-11T07:20:40.330Z,100954.96
2018-09-11T07:23:08.480Z,100951.66
2018-09-11T07:25:36.634Z,100959.64
2018-09-11T07:28:04.942Z,100961.25
2018-09-11T07:30:33.245Z,100957.09
2018-09-11T07:33:01.579Z,100948.03
2018-09-11T07:35:30.370Z,100942.70
2018-09-11T07:37:58.786Z,100938.34
2018-09-11T07:40:26.795Z,100938.55
2018-09-11T07:42:54.948Z,100942.16
2018-09-11T07:45:23.164Z,100942.96
2018-09-11T07:47:51.261Z,100944.02
2018-09-11T07:50:19.467Z,100942.62
2018-09-11T07:52:47.641Z,100947.28
2018-09-11T07:55:15.799Z,100947.77
2018-09-11T07:57:44.053Z,100948.09
2018-09-11T08:00:12.079Z,100957.00
2018-09-11T08:02:40.183Z,100958.84
2018-09-11T08:05:08.412Z,100959.37
2018-09-11T08:07:36.687Z,100942.58
2018-09-11T08:10:04.905Z,100953.70
2018-09-11T08:12:33.103Z,100956.97
2018-09-11T08:15:01.364Z,100953.59
2018-09-11T08:17:29.581Z,100946.45
2018-09-11T08:19:57.922Z,100941.20
2018-09-11T08:22:26.066Z,100954.05
2018-09-11T08:24:54.189Z,100946.38
2018-09-11T08:27:22.346Z,100942.70
2018-09-11T08:29:50.679Z,100945.41
2018-09-11T08:32:18.865Z,100932.70
2018-09-11T08:34:47.078Z,100934.13
2018-09-11T08:37:15.228Z,100937.67
2018-09-11T08:39:43.459Z,100942.50
2018-09-11T08:42:11.674Z,100940.36
2018-09-11T08:44:39.922Z,100936.24
2018-09-11T08:47:08.098Z,100946.16
2018-09-11T08:49:36.382Z,100933.94
2018-09-11T08:52:05.809Z,100932.30
2018-09-11T08:54:33.902Z,100918.34
2018-09-11T08:57:02.074Z,100914.34
2018-09-11T08:59:30.835Z,100918.19
2018-09-11T09:01:59.039Z,100912.99
2018-09-11T09:04:27.287Z,100914.64
2018-09-11T09:06:55.503Z,100920.89
2018-09-11T09:09:23.779Z,100917.16
2018-09-11T09:11:51.926Z,100903.89
2018-09-11T09:14:20.259Z,100896.14
2018-09-11T09:16:48.427Z,100903.91
2018-09-11T09:19:16.745Z,100896.30
2018-09-11T09:21:44.915Z,100903.97
2018-09-11T09:24:13.018Z,100896.92
2018-09-11T09:26:41.167Z,100890.53
2018-09-11T09:29:09.396Z,100886.22
2018-09-11T09:31:37.585Z,100881.84
2018-09-11T09:34:05.991Z,100887.03
2018-09-11T09:36:34.349Z,100875.73
2018-09-11T09:39:03.900Z,100890.45
2018-09-11T09:41:32.041Z,100892.50
2018-09-11T09:44:00.178Z,100881.20
2018-09-11T09:46:28.344Z,100879.43
2018-09-11T09:48:56.683Z,100874.12
2018-09-11T09:51:24.913Z,100869.42
2018-09-11T09:53:53.125Z,100870.26
2018-09-11T09:56:21.439Z,100866.61
2018-09-11T09:58:49.681Z,100868.90
2018-09-11T10:01:23.646Z,100871.05
2018-09-11T10:03:51.975Z,100871.55
2018-09-11T10:06:20.104Z,100875.41
2018-09-11T10:08:48.269Z,100867.56
2018-09-11T10:11:16.476Z,100861.92
2018-09-11T10:13:44.707Z,100859.11
2018-09-11T10:16:12.921Z,100850.99
2018-09-11T10:18:41.061Z,100849.09
2018-09-11T10:21:09.334Z,100846.59
2018-09-11T10:23:37.505Z,100847.59
2018-09-11T10:26:05.803Z,100842.94
2018-09-11T10:28:34.501Z,100844.27
2018-09-11T10:31:02.858Z,100846.92
2018-09-11T10:33:31.103Z,100843.52
2018-09-11T10:35:59.405Z,100847.19
2018-09-11T10:38:28.502Z,100843.17
2018-09-11T10:40:56.681Z,100847.93
2018-09-11T10:43:25.016Z,100840.42
2018-09-11T10:45:53.216Z,100842.28
2018-09-11T10:48:21.332Z,100846.95
2018-09-11T10:50:49.624Z,100835.33
2018-09-11T10:53:17.873Z,100835.73
2018-09-11T10:55:46.022Z,100823.53
2018-09-11T10:58:14.275Z,100834.62
2018-09-11T11:00:42.412Z,100822.58
2018-09-11T11:03:10.744Z,100822.27
2018-09-11T11:05:39.769Z,100815.06
2018-09-11T11:08:08.061Z,100822.02
2018-09-11T11:10:36.392Z,100809.08
2018-09-11T11:13:04.917Z,100818.12
2018-09-11T11:15:33.127Z,100810.51
2018-09-11T11:18:01.344Z,100816.57
2018-09-11T11:20:29.570Z,100822.82
2018-09-11T11:22:57.813Z,100812.11
2018-09-11T11:25:26.039Z,100821.48
2018-09-11T11:27:54.359Z,100829.40
2018-09-11T11:30:22.591Z,100827.20
2018-09-11T11:32:50.924Z,100822.84
2018-09-11T11:35:19.176Z,100822.22
2018-09-11T11:37:47.368Z,100824.30
2018-09-11T11:40:15.506Z,100808.57
2018-09-11T11:42:43.694Z,100816.13
2018-09-11T11:45:12.666Z,100818.87
2018-09-11T11:47:41.189Z,100818.92
2018-09-11T11:50:16.171Z,100816.66
2018-09-11T11:52:44.337Z,100822.56
2018-09-11T11:55:12.605Z,100821.57
2018-09-11T11:57:40.651Z,100808.42
2018-09-11T12:00:09.017Z,100821.52
2018-09-11T12:02:37.165Z,100818.68
2018-09-11T12:05:05.465Z,100806.30
2018-09-11T12:07:34.073Z,100812.11
2018-09-11T12:10:02.267Z,100806.37
2018-09-11T12:12:30.456Z,100818.83
2018-09-11T12:14:58.623Z,100808.05
2018-09-11T12:17:26.782Z,100803.36
2018-09-11T12:19:55.132Z,100802.43
2018-09-11T12:22:23.576Z,100798.39
2018-09-11T12:24:51.818Z,100806.05
2018-09-11T12:27:20.070Z,100803.34
2018-09-11T12:29:48.181Z,100802.29
2018-09-11T12:32:16.467Z,100800.41
2018-09-11T12:34:44.728Z,100798.53
2018-09-11T12:37:13.007Z,100805.03
2018-09-11T12:39:41.175Z,100810.42
2018-09-11T12:42:09.549Z,100808.38
2018-09-11T12:44:37.778Z,100801.98
2018-09-11T12:47:07.198Z,100806.27
2018-09-11T12:49:35.777Z,100812.12
2018-09-11T12:52:03.920Z,100810.36
2018-09-11T12:54:32.137Z,100811.02
2018-09-11T12:57:00.282Z,100820.77
2018-09-11T12:59:28.601Z,100821.96
2018-09-11T13:01:56.937Z,100824.42
2018-09-11T13:04:25.185Z,100819.72
2018-09-11T13:06:53.981Z,100813.80
2018-09-11T13:09:22.276Z,100827.56
2018-09-11T13:11:50.552Z,100822.53
2018-09-11T13:14:19.044Z,100816.05
2018-09-11T13:16:47.341Z,100803.58
2018-09-11T13:19:15.611Z,100797.85
2018-09-11T13:21:44.594Z,100795.69
2018-09-11T13:24:13.047Z,100799.10
2018-09-11T13:26:41.247Z,100798.20
2018-09-11T13:29:09.476Z,100806.41
2018-09-11T13:31:37.723Z,100806.97
2018-09-11T13:34:06.174Z,100795.77
2018-09-11T13:36:34.474Z,100795.80
2018-09-11T13:39:04.093Z,100793.34
2018-09-11T13:41:32.238Z,100792.27
2018-09-11T13:44:00.510Z,100796.48
2018-09-11T13:46:28.782Z,100783.95
2018-09-11T13:48:57.799Z,100782.58
2018-09-11T13:51:26.053Z,100785.09
2018-09-11T13:53:54.315Z,100791.62
2018-09-11T13:56:22.459Z,100797.61
2018-09-11T13:58:50.647Z,100794.79
2018-09-11T14:01:18.797Z,100795.16
2018-09-11T14:03:46.966Z,100793.02
2018-09-11T14:06:15.201Z,100791.97
2018-09-11T14:08:44.040Z,100782.47
2018-09-11T14:11:12.440Z,100777.05
2018-09-11T14:13:40.693Z,100770.57
2018-09-11T14:16:08.857Z,100757.40
2018-09-11T14:18:37.073Z,100753.59
2018-09-11T14:21:06.141Z,100757.30
2018-09-11T14:23:34.239Z,100751.25
2018-09-11T14:26:03.316Z,100769.78
2018-09-11T14:28:32.496Z,100768.48
2018-09-11T14:31:00.666Z,100765.03
2018-09-11T14:33:28.884Z,100766.09
2018-09-11T14:35:57.181Z,100764.98
2018-09-11T14:38:25.514Z,100760.31
2018-09-11T14:40:53.775Z,100758.41
2018-09-11T14:43:21.980Z,100756.98
2018-09-11T14:45:50.245Z,100747.02
2018-09-11T14:48:18.394Z,100744.98
2018-09-11T14:50:46.556Z,100741.53
2018-09-11T14:53:14.689Z,100749.50
2018-09-11T14:55:42.833Z,100740.55
2018-09-11T14:58:11.307Z,100741.23
2018-09-11T15:00:39.505Z,100736.39
2018-09-11T15:03:07.730Z,100738.84
2018-09-11T15:05:35.984Z,100740.43
2018-09-11T15:08:04.214Z,100739.97
2018-09-11T15:10:32.499Z,100737.65
2018-09-11T15:13:00.755Z,100728.70
2018-09-11T15:15:28.991Z,100734.98
2018-09-11T15:17:57.819Z,100728.28
2018-09-11T15:20:26.024Z,100734.92
2018-09-11T15:22:54.280Z,100735.12
2018-09-11T15:25:22.543Z,100731.82
2018-09-11T15:27:50.748Z,100728.13
2018-09-11T15:30:19.011Z,100727.90
2018-09-11T15:32:47.247Z,100734.27
2018-09-11T15:35:15.387Z,100736.02
2018-09-11T15:37:43.567Z,100724.28
2018-09-11T15:40:11.819Z,100727.33
2018-09-11T15:42:39.941Z,100723.23
2018-09-11T15:45:08.089Z,100739.09
2018-09-11T15:47:37.169Z,100737.95
2018-09-11T15:50:05.436Z,100732.16
2018-09-11T15:52:33.731Z,100727.83
2018-09-11T15:55:01.894Z,100728.16
2018-09-11T15:57:30.112Z,100719.52
2018-09-11T15:59:58.199Z,100721.80
2018-09-11T16:02:26.384Z,100725.63
2018-09-11T16:04:54.590Z,100728.89
2018-09-11T16:07:23.101Z,100727.17
2018-09-11T16:09:51.359Z,100724.01
2018-09-11T16:12:19.617Z,100724.97
2018-09-11T16:14:47.893Z,100727.99
2018-09-11T16:17:16.100Z,100727.09
2018-09-11T16:19:44.365Z,100725.49
2018-09-11T16:22:12.550Z,100718.78
2018-09-11T16:24:40.945Z,100720.16
2018-09-11T16:27:09.290Z,100718.07
2018-09-11T16:29:37.530Z,100728.92
2018-09-11T16:32:05.784Z,100730.36
2018-09-11T16:34:35.088Z,100725.00
2018-09-11T16:37:04.234Z,100727.66
2018-09-11T16:39:32.481Z,100727.60
2018-09-11T16:42:00.664Z,100729.58
2018-09-11T16:44:28.900Z,100720.17
2018-09-11T16:46:57.206Z,100725.25
2018-09-11T16:49:25.426Z,100722.72
2018-09-11T16:51:53.640Z,100716.70
2018-09-11T16:54:21.869Z,100719.48
2018-09-11T16:56:50.066Z,100712.32
2018-09-11T16:59:18.247Z,100705.66
2018-09-11T17:01:46.368Z,100714.50
2018-09-11T17:04:14.536Z,100715.65
2018-09-11T17:06:42.672Z,100709.05
2018-09-11T17:09:10.810Z,100708.03
2018-09-11T17:11:39.070Z,100710.73
2018-09-11T17:14:07.208Z,100712.55
2018-09-11T17:16:35.425Z,100712.67
2018-09-11T17:19:03.610Z,100708.66
2018-09-11T17:21:31.686Z,100712.91
2018-09-11T17:23:59.979Z,100717.19
2018-09-11T17:26:28.091Z,100713.16
2018-09-11T17:28:56.354Z,100713.27
2018-09-11T17:31:24.496Z,100714.89
2018-09-11T17:33:52.627Z,100711.37
2018-09-11T17:36:21.480Z,100712.55
2018-09-11T17:38:49.691Z,100715.73
2018-09-11T17:41:17.837Z,100717.59
2018-09-11T17:43:46.075Z,100716.20
2018-09-11T17:46:14.250Z,100722.72
2018-09-11T17:48:42.615Z,100715.36
2018-09-11T17:51:10.731Z,100724.17
2018-09-11T17:53:38.898Z,100716.05
2018-09-11T17:56:07.066Z,100722.78
2018-09-11T17:58:35.395Z,100717.48
2018-09-11T18:01:03.663Z,100724.84
2018-09-11T18:03:33.567Z,100724.81
2018-09-11T18:06:01.875Z,100728.27
2018-09-11T18:08:30.175Z,100727.31
2018-09-11T18:10:58.381Z,100731.84
2018-09-11T18:13:26.513Z,100730.59
2018-09-11T18:15:54.871Z,100730.06
2018-09-11T18:18:23.842Z,100733.58
2018-09-11T18:20:52.289Z,100731.14
2018-09-11T18:23:20.514Z,100744.44
2018-09-11T18:25:48.802Z,100750.34
2018-09-11T18:28:16.987Z,100749.34
2018-09-11T18:30:45.180Z,100751.39
2018-09-11T18:33:13.270Z,100753.97
2018-09-11T18:35:41.458Z,100757.92
2018-09-11T18:38:09.618Z,100763.99
2018-09-11T18:40:37.756Z,100761.84
2018-09-11T18:43:06.165Z,100761.16
2018-09-11T18:45:34.486Z,100769.48
2018-09-11T18:48:02.924Z,100769.78
2018-09-11T18:50:31.109Z,100770.73
2018-09-11T18:52:59.345Z,100770.44
2018-09-11T18:55:27.479Z,100772.36
2018-09-11T18:57:55.681Z,100766.30
2018-09-11T19:00:28.408Z,100771.08
2018-09-11T19:02:58.312Z,100776.08
2018-09-11T19:05:27.363Z,100785.80
2018-09-11T19:07:55.924Z,100788.89
2018-09-11T19:10:24.214Z,100785.91
2018-09-11T19:12:52.384Z,100788.41
2018-09-11T19:15:20.780Z,100791.95
2018-09-11T19:17:48.949Z,100796.11
2018-09-11T19:20:17.377Z,100797.69
2018-09-11T19:22:46.244Z,100802.62
2018-09-11T19:25:14.560Z,100801.23
2018-09-11T19:27:43.653Z,100801.19
2018-09-11T19:30:12.049Z,100799.86
2018-09-11T19:32:40.655Z,100799.02
2018-09-11T19:35:08.966Z,100795.77
2018-09-11T19:37:37.513Z,100796.31
2018-09-11T19:40:06.613Z,100796.91
2018-09-11T19:42:35.417Z,100797.89
2018-09-11T19:45:03.957Z,100802.41
2018-09-11T19:47:32.196Z,100802.61
2018-09-11T19:50:00.467Z,100806.25
2018-09-11T19:52:28.967Z,100807.08
2018-09-11T19:54:57.107Z,100818.59
2018-09-11T19:57:25.371Z,100808.36
2018-09-11T19:59:54.387Z,100806.05
2018-09-11T20:02:22.561Z,100805.02
2018-09-11T20:04:50.885Z,100807.58
2018-09-11T20:07:18.933Z,100816.16
2018-09-11T20:09:47.797Z,100817.48
2018-09-11T20:12:16.065Z,100819.94
2018-09-11T20:14:44.328Z,100829.23
2018-09-11T20:17:12.470Z,100827.52
2018-09-11T20:19:40.611Z,100831.23
2018-09-11T20:22:09.966Z,100842.16
2018-09-11T20:24:38.107Z,100845.20
2018-09-11T20:27:07.421Z,100844.70
2018-09-11T20:29:35.588Z,100840.86
2018-09-11T20:32:03.841Z,100835.91
2018-09-11T20:34:31.998Z,100831.57
2018-09-11T20:37:00.169Z,100829.18
2018-09-11T20:39:28.354Z,100829.72
2018-09-11T20:41:57.107Z,100835.22
2018-09-11T20:44:25.395Z,100831.17
2018-09-11T20:46:53.623Z,100836.19
2018-09-11T20:49:21.793Z,100841.17
2018-09-11T20:51:50.056Z,100840.65
2018-09-11T20:54:18.280Z,100839.05
2018-09-11T20:56:46.550Z,100841.53
2018-09-11T20:59:14.883Z,100841.48
2018-09-11T21:01:43.125Z,100836.61
2018-09-11T21:04:11.252Z,100844.55
2018-09-11T21:06:39.498Z,100838.55
2018-09-11T21:09:08.592Z,100848.15
2018-09-11T21:11:36.795Z,100850.09
2018-09-11T21:14:04.880Z,100844.30
2018-09-11T21:16:33.240Z,100839.08
2018-09-11T21:19:01.340Z,100839.12
2018-09-11T21:21:29.530Z,100841.06
2018-09-11T21:23:57.659Z,100837.19
2018-09-11T21:26:26.005Z,100836.40
2018-09-11T21:28:54.217Z,100835.03
2018-09-11T21:31:22.495Z,100832.00
2018-09-11T21:33:50.735Z,100836.42
2018-09-11T21:36:19.127Z,100839.47
2018-09-11T21:38:47.247Z,100841.64
2018-09-11T21:41:15.538Z,100840.28
2018-09-11T21:43:43.793Z,100831.52
2018-09-11T21:46:12.257Z,100836.14
2018-09-11T21:48:41.026Z,100830.13
2018-09-11T21:51:09.137Z,100833.17
2018-09-11T21:53:38.087Z,100834.83
2018-09-11T21:56:06.264Z,100835.67
2018-09-11T21:58:35.650Z,100837.88
2018-09-11T22:01:09.806Z,100838.13
2018-09-11T22:03:38.218Z,100832.09
2018-09-11T22:06:06.656Z,100835.40
2018-09-11T22:08:35.289Z,100829.92
2018-09-11T22:11:03.616Z,100830.77
2018-09-11T22:13:31.926Z,100829.41
2018-09-11T22:16:00.228Z,100827.48
2018-09-11T22:18:28.772Z,100834.06
2018-09-11T22:20:57.305Z,100828.84
2018-09-11T22:23:25.541Z,100827.20
2018-09-11T22:25:53.763Z,100822.52
2018-09-11T22:28:22.043Z,100819.52
2018-09-11T22:30:50.245Z,100825.55
2018-09-11T22:33:18.442Z,100819.25
2018-09-11T22:35:46.973Z,100819.27
2018-09-11T22:38:15.117Z,100824.73
2018-09-11T22:40:43.373Z,100821.74
2018-09-11T22:43:11.530Z,100822.84
2018-09-11T22:45:39.883Z,100816.78
2018-09-11T22:48:08.005Z,100818.16
2018-09-11T22:50:36.348Z,100819.55
2018-09-11T22:53:04.491Z,100825.84
2018-09-11T22:55:32.815Z,100817.33
2018-09-11T22:58:00.940Z,100824.19
2018-09-11T23:00:29.102Z,100823.63
2018-09-11T23:02:57.365Z,100810.47
2018-09-11T23:05:25.646Z,100820.61
2018-09-11T23:07:53.813Z,100813.50
2018-09-11T23:10:22.154Z,100818.16
2018-09-11T23:12:50.289Z,100812.38
2018-09-11T23:15:18.601Z,100816.79
2018-09-11T23:17:46.801Z,100814.84
2018-09-11T23:20:15.130Z,100812.67
2018-09-11T23:22:43.765Z,100812.09
2018-09-11T23:25:12.082Z,100810.98
2018-09-11T23:27:40.281Z,100805.48
2018-09-11T23:30:08.587Z,100816.73
2018-09-11T23:32:36.944Z,100809.10
2018-09-11T23:35:05.532Z,100815.62
2018-09-11T23:37:33.735Z,100813.97
2018-09-11T23:40:01.976Z,100817.53
2018-09-11T23:42:30.309Z,100810.69
2018-09-11T23:44:58.624Z,100818.08
2018-09-11T23:47:26.746Z,100815.33
2018-09-11T23:49:55.058Z,100814.22
2018-09-11T23:52:23.228Z,100811.23
2018-09-11T23:54:51.470Z,100812.00
2018-09-11T23:57:19.776Z,100809.52
2018-09-11T23:59:48.071Z,100811.17
